createdAt,value
2019-02-16T00:03:36.497Z,78.60
2019-02-16T00:08:47.123Z,69.70
2019-02-16T00:13:55.102Z,69.00
2019-02-16T00:19:06.303Z,69.50
2019-02-16T00:24:15.455Z,68.11
2019-02-16T00:29:23.463Z,64.11
2019-02-16T00:34:33.282Z,65.56
2019-02-16T00:39:41.535Z,66.70
2019-02-16T00:44:49.763Z,65.89
2019-02-16T00:49:59.546Z,65.89
2019-02-16T00:55:05.547Z,66.50
2019-02-16T01:00:16.190Z,76.33
2019-02-16T01:05:25.210Z,79.40
2019-02-16T01:10:35.611Z,79.10
2019-02-16T01:15:46.178Z,80.20
2019-02-16T01:20:55.282Z,78.50
2019-02-16T01:26:03.651Z,73.00
2019-02-16T01:31:08.591Z,74.00
2019-02-16T01:36:19.223Z,72.33
2019-02-16T01:41:29.194Z,68.11
2019-02-16T01:46:38.566Z,62.62
2019-02-16T01:51:46.962Z,78.11
2019-02-16T01:56:57.881Z,66.50
2019-02-16T02:02:05.667Z,73.11
2019-02-16T02:07:16.611Z,72.78
2019-02-16T02:12:24.813Z,67.78
2019-02-16T02:17:32.918Z,69.11
2019-02-16T02:22:40.996Z,67.44
2019-02-16T02:27:45.887Z,73.00
2019-02-16T02:32:49.679Z,69.00
2019-02-16T02:38:00.466Z,67.56
2019-02-16T02:43:11.182Z,69.67
2019-02-16T02:48:21.022Z,69.78
2019-02-16T02:53:31.835Z,72.00
2019-02-16T02:58:43.316Z,70.60
2019-02-16T03:03:51.503Z,69.22
2019-02-16T03:08:59.850Z,66.78
2019-02-16T03:14:10.861Z,69.30
2019-02-16T03:19:15.286Z,70.17
2019-02-16T03:24:26.107Z,67.60
2019-02-16T03:29:39.128Z,76.33
2019-02-16T03:34:56.910Z,69.22
2019-02-16T03:40:08.377Z,75.33
2019-02-16T03:45:19.618Z,71.40
2019-02-16T03:50:31.611Z,65.44
2019-02-16T03:55:41.090Z,70.11
2019-02-16T04:00:52.706Z,81.00
2019-02-16T04:06:02.637Z,75.00
2019-02-16T04:11:10.922Z,68.89
2019-02-16T04:16:14.308Z,69.00
2019-02-16T04:21:21.982Z,65.22
2019-02-16T04:26:32.019Z,70.67
2019-02-16T04:31:41.807Z,70.44
2019-02-16T04:36:51.947Z,69.44
2019-02-16T04:41:59.459Z,65.67
2019-02-16T04:47:09.495Z,64.44
2019-02-16T04:52:18.592Z,72.75
2019-02-16T04:57:29.562Z,70.89
2019-02-16T05:02:35.255Z,75.80
2019-02-16T05:07:46.245Z,70.90
2019-02-16T05:12:49.759Z,72.00
2019-02-16T05:18:00.183Z,78.56
2019-02-16T05:23:03.649Z,82.00
2019-02-16T05:28:13.931Z,77.33
2019-02-16T05:33:23.567Z,88.00
2019-02-16T05:38:35.279Z,77.50
2019-02-16T05:43:44.376Z,76.50
2019-02-16T05:48:55.835Z,87.18
2019-02-16T05:54:06.679Z,81.20
2019-02-16T05:59:11.381Z,82.00
2019-02-16T06:04:17.023Z,82.14
2019-02-16T06:09:25.826Z,78.30
2019-02-16T06:14:29.971Z,86.17
2019-02-16T06:19:35.039Z,81.86
2019-02-16T06:24:46.890Z,87.18
2019-02-16T06:29:52.438Z,80.14
2019-02-16T06:35:04.339Z,82.90
2019-02-16T06:40:19.654Z,87.00
2019-02-16T06:45:31.058Z,74.50
2019-02-16T06:50:39.222Z,77.89
2019-02-16T06:55:47.511Z,72.67
2019-02-16T07:00:56.385Z,72.00
2019-02-16T07:06:07.754Z,73.50
2019-02-16T07:11:15.882Z,78.20
2019-02-16T07:16:21.480Z,75.40
2019-02-16T07:21:30.881Z,78.00
2019-02-16T07:26:41.853Z,71.60
2019-02-16T07:31:47.081Z,65.14
2019-02-16T07:36:54.719Z,65.44
2019-02-16T07:41:58.771Z,69.00
2019-02-16T07:47:09.295Z,65.50
2019-02-16T07:52:20.842Z,64.89
2019-02-16T07:57:29.112Z,61.56
2019-02-16T08:02:36.507Z,59.00
2019-02-16T08:07:46.408Z,64.10
2019-02-16T08:12:57.295Z,67.10
2019-02-16T08:18:04.771Z,66.00
2019-02-16T08:23:14.668Z,65.33
2019-02-16T08:28:23.801Z,62.88
2019-02-16T08:33:33.684Z,57.67
2019-02-16T08:38:40.406Z,60.88
2019-02-16T08:43:48.949Z,52.75
2019-02-16T08:48:54.255Z,53.50
2019-02-16T08:54:02.932Z,49.89
2019-02-16T08:59:07.346Z,51.75
2019-02-16T09:04:15.728Z,50.38
2019-02-16T09:09:21.515Z,45.38
2019-02-16T09:14:24.812Z,46.00
2019-02-16T09:19:28.178Z,39.33
2019-02-16T09:24:32.293Z,44.25
2019-02-16T09:29:36.953Z,43.00
2019-02-16T09:34:42.634Z,41.43
2019-02-16T09:39:51.619Z,42.38
2019-02-16T09:44:59.690Z,46.56
2019-02-16T09:50:03.834Z,43.00
2019-02-16T09:55:07.838Z,44.00
2019-02-16T10:00:16.759Z,41.00
2019-02-16T10:05:20.514Z,40.00
2019-02-16T10:10:29.376Z,34.25
2019-02-16T10:15:37.347Z,36.00
2019-02-16T10:20:45.990Z,33.00
2019-02-16T10:25:52.475Z,31.87
2019-02-16T10:31:00.672Z,34.00
2019-02-16T10:36:05.067Z,26.25
2019-02-16T10:41:09.178Z,25.00
2019-02-16T10:46:15.440Z,30.75
2019-02-16T10:51:25.859Z,31.92
2019-02-16T10:56:30.366Z,31.00
2019-02-16T11:01:33.783Z,30.00
2019-02-16T11:06:42.546Z,29.25
2019-02-16T11:11:50.386Z,32.25
2019-02-16T11:16:54.192Z,27.50
2019-02-16T11:21:58.871Z,30.00
2019-02-16T11:27:02.357Z,27.00
2019-02-16T11:32:06.727Z,26.25
2019-02-16T11:37:10.275Z,27.00
2019-02-16T11:42:16.540Z,30.00
2019-02-16T11:47:24.437Z,30.75
2019-02-16T11:52:28.314Z,33.00
2019-02-16T11:57:34.822Z,31.62
2019-02-16T12:02:42.845Z,35.00
2019-02-16T12:07:51.000Z,31.00
2019-02-16T12:12:54.815Z,32.33
2019-02-16T12:18:03.138Z,30.00
2019-02-16T12:23:12.013Z,30.57
2019-02-16T12:28:21.555Z,31.14
2019-02-16T12:33:28.681Z,29.63
2019-02-16T12:38:35.538Z,27.87
2019-02-16T12:43:45.341Z,31.00
2019-02-16T12:48:52.993Z,32.25
2019-02-16T12:54:01.760Z,30.00
2019-02-16T12:59:08.301Z,32.50
2019-02-16T13:04:17.608Z,30.88
2019-02-16T13:09:23.023Z,30.29
2019-02-16T13:14:26.292Z,23.00
2019-02-16T13:19:34.271Z,21.43
2019-02-16T13:24:41.310Z,19.12
2019-02-16T13:29:44.347Z,20.00
2019-02-16T13:34:52.253Z,22.25
2019-02-16T13:39:55.891Z,28.00
2019-02-16T13:44:59.480Z,24.00
2019-02-16T13:50:03.694Z,21.00
2019-02-16T13:55:11.198Z,17.37
2019-02-16T14:00:20.403Z,20.00
2019-02-16T14:05:26.528Z,27.25
2019-02-16T14:10:30.215Z,24.50
2019-02-16T14:15:33.779Z,19.25
2019-02-16T14:20:39.028Z,18.29
2019-02-16T14:25:47.499Z,16.12
2019-02-16T14:30:51.005Z,17.33
2019-02-16T14:35:57.265Z,19.00
2019-02-16T14:41:03.612Z,19.37
2019-02-16T14:46:11.107Z,16.71
2019-02-16T14:51:15.343Z,20.75
2019-02-16T14:56:20.614Z,21.29
2019-02-16T15:01:27.483Z,20.50
2019-02-16T15:06:36.445Z,16.37
2019-02-16T15:11:41.686Z,18.00
2019-02-16T15:16:49.267Z,18.71
2019-02-16T15:21:57.598Z,25.12
2019-02-16T15:27:04.979Z,38.25
2019-02-16T15:32:08.871Z,30.00
2019-02-16T15:37:16.104Z,37.86
2019-02-16T15:42:20.800Z,41.00
2019-02-16T15:47:25.650Z,33.00
2019-02-16T15:52:32.643Z,33.00
2019-02-16T15:57:38.893Z,32.00
2019-02-16T16:02:45.713Z,35.00
2019-02-16T16:07:55.130Z,33.38
2019-02-16T16:13:01.331Z,37.00
2019-02-16T16:18:08.237Z,33.44
2019-02-16T16:23:11.827Z,33.00
2019-02-16T16:28:18.083Z,31.57
2019-02-16T16:33:27.443Z,39.50
2019-02-16T16:38:31.653Z,38.50
2019-02-16T16:43:40.335Z,41.37
2019-02-16T16:48:43.470Z,38.00
2019-02-16T16:53:52.158Z,39.38
2019-02-16T16:59:00.033Z,40.00
2019-02-16T17:04:06.291Z,48.00
2019-02-16T17:09:12.478Z,44.00
2019-02-16T17:14:17.408Z,48.00
2019-02-16T17:19:21.832Z,46.25
2019-02-16T17:24:30.031Z,50.00
2019-02-16T17:29:37.459Z,50.44
2019-02-16T17:34:45.004Z,51.00
2019-02-16T17:39:50.992Z,48.87
2019-02-16T17:44:54.829Z,48.00
2019-02-16T17:50:02.022Z,48.38
2019-02-16T17:55:08.550Z,53.87
2019-02-16T18:00:13.378Z,50.00
2019-02-16T18:05:22.355Z,48.50
2019-02-16T18:10:29.545Z,51.11
2019-02-16T18:15:39.074Z,50.89
2019-02-16T18:20:42.923Z,52.00
2019-02-16T18:25:47.591Z,56.50
2019-02-16T18:30:57.559Z,57.00
2019-02-16T18:36:04.537Z,56.33
2019-02-16T18:41:14.192Z,53.11
2019-02-16T18:46:18.880Z,53.00
2019-02-16T18:51:26.358Z,52.67
2019-02-16T18:56:33.095Z,52.00
2019-02-16T19:01:37.546Z,51.50
2019-02-16T19:06:42.174Z,54.00
2019-02-16T19:11:50.236Z,51.22
2019-02-16T19:16:58.990Z,52.62
2019-02-16T19:22:03.927Z,51.50
2019-02-16T19:27:16.630Z,56.22
2019-02-16T19:32:18.614Z,62.00
2019-02-16T19:37:27.884Z,59.58
2019-02-16T19:42:36.878Z,63.00
2019-02-16T19:47:46.906Z,73.67
2019-02-16T19:52:57.050Z,70.11
2019-02-16T19:58:05.358Z,71.11
2019-02-16T20:03:13.638Z,91.73
2019-02-16T20:08:21.223Z,110.25
2019-02-16T20:13:29.279Z,109.45
2019-02-16T20:18:32.699Z,110.00
2019-02-16T20:23:41.385Z,100.42
2019-02-16T20:28:45.191Z,106.80
2019-02-16T20:33:54.388Z,113.25
2019-02-16T20:38:58.668Z,110.50
2019-02-16T20:44:03.479Z,105.17
2019-02-16T20:49:10.033Z,95.00
2019-02-16T20:54:22.917Z,107.00
2019-02-16T20:59:26.792Z,105.60
2019-02-16T21:04:38.878Z,103.00
2019-02-16T21:09:46.710Z,111.73
2019-02-16T21:14:54.867Z,118.00
2019-02-16T21:20:06.734Z,121.86
2019-02-16T21:25:10.818Z,127.00
2019-02-16T21:30:20.346Z,137.17
2019-02-16T21:35:23.833Z,131.00
2019-02-16T21:40:32.949Z,131.25
2019-02-16T21:45:43.659Z,136.77
2019-02-16T21:50:49.946Z,133.43
2019-02-16T21:56:01.309Z,140.50
2019-02-16T22:01:12.479Z,154.62
2019-02-16T22:06:16.298Z,143.00
2019-02-16T22:11:21.576Z,130.71
2019-02-16T22:16:25.050Z,136.00
2019-02-16T22:21:29.127Z,144.60
2019-02-16T22:26:38.455Z,135.67
2019-02-16T22:31:49.179Z,138.43
2019-02-16T22:36:53.845Z,159.40
2019-02-16T22:42:10.619Z,136.24
2019-02-16T22:47:20.595Z,136.37
2019-02-16T22:52:34.225Z,134.63
2019-02-16T22:57:40.527Z,122.00
2019-02-16T23:02:44.716Z,135.50
2019-02-16T23:07:49.689Z,138.75
2019-02-16T23:12:56.329Z,137.00
2019-02-16T23:18:03.813Z,146.00
2019-02-16T23:23:12.982Z,148.25
2019-02-16T23:28:22.910Z,151.46
2019-02-16T23:33:29.334Z,153.29
2019-02-16T23:38:33.086Z,150.40
2019-02-16T23:43:37.395Z,133.00
2019-02-16T23:48:47.045Z,126.42
2019-02-16T23:53:50.735Z,122.60
2019-02-16T23:58:58.764Z,120.82
